Time;durP1;ratioP1;P1;durP2;ratioP2;P2;SDS_P1;SDS_P2;PMS_P1;PMS_P2;Temp;Humidity;BMP_temperature;BMP_pressure;BME280_temperature;BME280_humidity;BME280_pressure;Samples;Min_cycle;Max_cycle;Signal;HPM_P1;HPM_P2
2023/04/14 00:01:35;;;;;;;;;2.00;2.00;;;;;20.47;50.08;100084.49;110206;1251;20057;-39
2023/04/14 00:04:03;;;;;;;;;2.00;2.00;;;;;20.47;50.15;100083.27;110220;1250;21460;-40
2023/04/14 00:06:30;;;;;;;;;2.00;2.00;;;;;20.47;50.40;100087.42;110215;1251;19624;-39
2023/04/14 00:08:57;;;;;;;;;2.00;2.00;;;;;20.47;50.22;100081.98;110191;1264;18621;-40
2023/04/14 00:11:26;;;;;;;;;5.00;4.00;;;;;20.46;50.28;100085.91;110204;1264;19229;-39
2023/04/14 00:13:54;;;;;;;;;1.00;1.00;;;;;20.46;50.47;100087.91;110262;1249;22915;-39
2023/04/14 00:16:22;;;;;;;;;2.00;2.00;;;;;20.46;50.30;100082.31;110223;1264;19981;-39
2023/04/14 00:18:49;;;;;;;;;1.00;1.00;;;;;20.47;50.38;100086.79;110193;1264;19555;-42
2023/04/14 00:21:16;;;;;;;;;1.00;1.00;;;;;20.46;50.22;100083.96;110189;1251;19678;-39
2023/04/14 00:23:44;;;;;;;;;1.00;1.00;;;;;20.46;50.20;100086.86;110167;1251;18586;-40
2023/04/14 00:26:11;;;;;;;;;2.00;2.00;;;;;20.47;50.24;100084.87;110180;1260;19347;-40
2023/04/14 00:28:39;;;;;;;;;1.00;1.00;;;;;20.46;50.38;100089.72;110199;1264;19786;-39
2023/04/14 00:31:07;;;;;;;;;1.00;1.00;;;;;20.47;50.32;100093.11;110205;1251;22664;-38
2023/04/14 00:33:34;;;;;;;;;2.00;2.00;;;;;20.48;50.24;100090.61;110218;1264;22677;-38
2023/04/14 00:36:01;;;;;;;;;4.00;4.00;;;;;20.46;50.48;100090.60;110214;1264;19636;-39
2023/04/14 00:38:29;;;;;;;;;2.00;2.00;;;;;20.47;50.07;100092.91;110178;1264;23383;-38
2023/04/14 00:40:56;;;;;;;;;2.00;2.00;;;;;20.48;50.36;100082.44;110202;1264;22073;-38
2023/04/14 00:43:24;;;;;;;;;2.00;2.00;;;;;20.48;50.27;100088.60;110222;1264;18565;-39
2023/04/14 00:45:51;;;;;;;;;2.00;2.00;;;;;20.47;50.17;100088.14;110228;1251;20193;-39
2023/04/14 00:48:19;;;;;;;;;2.00;1.50;;;;;20.49;50.15;100091.96;110209;1264;19385;-38
2023/04/14 00:50:46;;;;;;;;;2.00;2.00;;;;;20.48;50.22;100088.09;110181;1251;20767;-39
2023/04/14 00:53:13;;;;;;;;;1.00;1.00;;;;;20.48;50.29;100086.80;110190;1264;19957;-39
2023/04/14 00:55:41;;;;;;;;;2.00;2.00;;;;;20.48;50.16;100086.52;110206;1251;22916;-39
2023/04/14 00:58:09;;;;;;;;;4.00;2.00;;;;;20.46;50.33;100083.73;110214;1264;20997;-40
2023/04/14 01:00:36;;;;;;;;;1.00;1.00;;;;;20.46;50.33;100082.61;110199;1264;22107;-39
2023/04/14 01:03:04;;;;;;;;;2.00;2.00;;;;;20.47;50.31;100079.64;110197;1264;19332;-39
2023/04/14 01:05:31;;;;;;;;;1.00;1.00;;;;;20.46;50.31;100076.45;110249;1250;19431;-40
2023/04/14 01:07:59;;;;;;;;;1.00;1.00;;;;;20.47;50.13;100074.27;110194;1264;22056;-39
2023/04/14 01:10:26;;;;;;;;;2.00;2.00;;;;;20.47;50.25;100076.73;110188;1264;19366;-39
2023/04/14 01:12:54;;;;;;;;;2.00;2.00;;;;;20.46;50.20;100074.10;110216;1251;19763;-39
2023/04/14 01:15:21;;;;;;;;;2.00;2.00;;;;;20.47;50.34;100076.23;110224;1264;18706;-39
2023/04/14 01:17:49;;;;;;;;;1.00;1.00;;;;;20.48;50.26;100077.46;110181;1264;22714;-39
2023/04/14 01:20:17;;;;;;;;;2.00;2.00;;;;;20.48;50.39;100074.23;110232;1264;18484;-39
2023/04/14 01:22:45;;;;;;;;;2.00;2.00;;;;;20.48;50.24;100073.86;110212;1264;18632;-40
2023/04/14 01:25:12;;;;;;;;;2.00;2.00;;;;;20.48;50.16;100072.48;110175;1251;20621;-39
2023/04/14 01:27:39;;;;;;;;;2.00;2.00;;;;;20.48;50.16;100075.37;110166;1264;20209;-39
2023/04/14 01:30:07;;;;;;;;;2.00;2.00;;;;;20.48;50.25;100079.14;110189;1250;19983;-39
2023/04/14 01:32:34;;;;;;;;;4.00;2.00;;;;;20.49;50.25;100080.11;110211;1260;20972;-39
2023/04/14 01:35:02;;;;;;;;;2.00;2.00;;;;;20.48;50.35;100077.55;110193;1251;19703;-39
2023/04/14 01:37:30;;;;;;;;;2.00;2.00;;;;;20.48;50.23;100082.95;110209;1264;22755;-39
2023/04/14 01:39:57;;;;;;;;;1.00;1.00;;;;;20.48;50.16;100083.70;110203;1264;21023;-40
2023/04/14 01:42:25;;;;;;;;;2.00;2.00;;;;;20.48;50.23;100082.02;110196;1249;22034;-39
2023/04/14 01:44:52;;;;;;;;;2.00;2.00;;;;;20.47;50.36;100078.50;110191;1264;18596;-40
2023/04/14 01:47:20;;;;;;;;;2.00;2.00;;;;;20.48;50.30;100076.58;110210;1264;20717;-39
2023/04/14 01:49:47;;;;;;;;;4.50;4.00;;;;;20.48;50.23;100078.30;110195;1264;18434;-39
2023/04/14 01:52:15;;;;;;;;;2.00;2.00;;;;;20.48;50.20;100078.59;110223;1251;19862;-39
2023/04/14 01:54:42;;;;;;;;;2.00;2.00;;;;;20.48;50.33;100076.63;110136;1257;23431;-39
2023/04/14 01:57:10;;;;;;;;;1.00;1.00;;;;;20.48;50.10;100078.59;110176;1264;18658;-40
2023/04/14 01:59:37;;;;;;;;;2.00;2.00;;;;;20.48;50.33;100074.83;110185;1264;18751;-40
2023/04/14 02:02:05;;;;;;;;;2.00;2.00;;;;;20.48;50.36;100077.75;110177;1251;20796;-40
2023/04/14 02:04:32;;;;;;;;;2.00;2.00;;;;;20.48;50.42;100082.23;110182;1251;18388;-40
2023/04/14 02:06:59;;;;;;;;;4.00;2.00;;;;;20.48;50.46;100081.86;110203;1264;19956;-41
2023/04/14 02:09:27;;;;;;;;;2.00;2.00;;;;;20.48;50.39;100083.52;110207;1251;20814;-39
2023/04/14 02:11:54;;;;;;;;;2.00;2.00;;;;;20.47;50.30;100082.73;110216;1257;20651;-40
2023/04/14 02:14:22;;;;;;;;;2.00;2.00;;;;;20.48;50.42;100079.48;110209;1264;18622;-40
2023/04/14 02:16:49;;;;;;;;;1.00;1.00;;;;;20.47;50.38;100076.20;110186;1251;20960;-40
2023/04/14 02:19:16;;;;;;;;;1.67;1.67;;;;;20.48;50.21;100079.31;110163;1251;20173;-40
2023/04/14 02:21:44;;;;;;;;;4.00;4.00;;;;;20.48;50.33;100080.05;110194;1264;19923;-40
2023/04/14 02:24:11;;;;;;;;;4.00;2.00;;;;;20.48;50.26;100080.81;110213;1251;20833;-40
2023/04/14 02:26:39;;;;;;;;;2.00;2.00;;;;;20.48;50.19;100080.10;110178;1251;20977;-40
2023/04/14 02:29:07;;;;;;;;;2.00;2.00;;;;;20.48;50.20;100083.33;110257;1264;21487;-40
2023/04/14 02:31:34;;;;;;;;;1.00;1.00;;;;;20.48;50.33;100084.16;110210;1264;20740;-40
2023/04/14 02:34:01;;;;;;;;;2.00;2.00;;;;;20.49;50.27;100083.63;110174;1260;22161;-40
2023/04/14 02:36:31;;;;;;;;;2.00;2.00;;;;;20.48;50.24;100079.10;110212;1251;20460;-40
2023/04/14 02:38:58;;;;;;;;;2.00;2.00;;;;;20.48;50.25;100081.86;110237;1264;20706;-39
2023/04/14 02:41:26;;;;;;;;;1.50;1.50;;;;;20.48;50.36;100082.20;110186;1251;20965;-39
2023/04/14 02:43:53;;;;;;;;;2.00;2.00;;;;;20.48;50.42;100076.17;110204;1251;18602;-40
2023/04/14 02:46:20;;;;;;;;;1.00;1.00;;;;;20.49;50.35;100072.73;110195;1264;20906;-39
2023/04/14 02:48:48;;;;;;;;;4.00;2.00;;;;;20.48;50.22;100071.55;110222;1264;18435;-39
2023/04/14 02:51:15;;;;;;;;;2.00;2.00;;;;;20.48;50.31;100071.48;110177;1251;20693;-40
2023/04/14 02:53:43;;;;;;;;;2.00;2.00;;;;;20.49;50.24;100074.09;110242;1264;19341;-40
2023/04/14 02:56:10;;;;;;;;;1.00;1.00;;;;;20.49;50.39;100075.05;110213;1250;19599;-39
2023/04/14 02:58:37;;;;;;;;;1.00;1.00;;;;;20.49;50.42;100079.98;110197;1251;20018;-39
2023/04/14 03:01:05;;;;;;;;;1.50;1.50;;;;;20.49;50.31;100082.25;110201;1251;22087;-39
2023/04/14 03:03:36;;;;;;;;;2.00;2.00;;;;;20.49;50.19;100086.13;110222;1251;19681;-39
2023/04/14 03:06:03;;;;;;;;;2.00;2.00;;;;;20.49;50.35;100089.91;110181;1264;19885;-39
2023/04/14 03:08:31;;;;;;;;;2.00;2.00;;;;;20.48;50.35;100090.15;110201;1264;20671;-39
2023/04/14 03:10:58;;;;;;;;;2.00;2.00;;;;;20.49;50.42;100096.11;110212;1251;18496;-39
2023/04/14 03:13:26;;;;;;;;;4.00;2.00;;;;;20.49;50.46;100090.86;110186;1260;20190;-39
2023/04/14 03:15:53;;;;;;;;;2.00;2.00;;;;;20.49;50.25;100091.03;110233;1264;20937;-39
2023/04/14 03:18:21;;;;;;;;;1.00;1.00;;;;;20.48;50.21;100087.64;110285;1251;19962;-39
2023/04/14 03:20:50;;;;;;;;;1.00;1.00;;;;;20.48;50.47;100088.94;110224;1264;18593;-39
2023/04/14 03:23:19;;;;;;;;;2.00;2.00;;;;;20.49;50.50;100087.56;110204;1264;19368;-39
2023/04/14 03:25:46;;;;;;;;;2.00;2.00;;;;;20.49;50.46;100085.27;110191;1251;19653;-39
2023/04/14 03:28:14;;;;;;;;;3.00;2.00;;;;;20.49;50.38;100086.44;110165;1264;19940;-38
2023/04/14 03:30:42;;;;;;;;;1.00;1.00;;;;;20.49;50.26;100088.82;110208;1256;23802;-36
2023/04/14 03:33:10;;;;;;;;;2.00;2.00;;;;;20.50;50.30;100089.45;110203;1251;19617;-39
2023/04/14 03:35:38;;;;;;;;;1.00;1.00;;;;;20.50;50.44;100090.50;110176;1264;22309;-38
2023/04/14 03:38:08;;;;;;;;;2.00;2.00;;;;;20.49;50.51;100088.95;110193;1264;19521;-38
2023/04/14 03:40:37;;;;;;;;;2.00;2.00;;;;;20.50;50.46;100091.84;110204;1251;22369;-39
2023/04/14 03:43:06;;;;;;;;;2.00;2.00;;;;;20.49;50.42;100090.70;110221;1264;19963;-39
2023/04/14 03:45:35;;;;;;;;;2.00;2.00;;;;;20.48;50.45;100087.34;110204;1264;22902;-37
2023/04/14 03:48:02;;;;;;;;;2.00;2.00;;;;;20.50;50.56;100095.81;110190;1264;19563;-38
2023/04/14 03:50:30;;;;;;;;;2.00;2.00;;;;;20.50;50.42;100092.92;110193;1264;18652;-38
2023/04/14 03:52:57;;;;;;;;;2.00;2.00;;;;;20.50;50.45;100095.23;110207;1250;23795;-39
2023/04/14 03:55:25;;;;;;;;;2.00;1.00;;;;;20.50;50.63;100094.15;110221;1251;19621;-39
2023/04/14 03:57:53;;;;;;;;;2.00;2.00;;;;;20.50;50.49;100097.77;110214;1264;18618;-39
2023/04/14 04:00:20;;;;;;;;;4.00;2.00;;;;;20.50;50.57;100092.51;110182;1251;20953;-39
2023/04/14 04:02:48;;;;;;;;;1.50;1.50;;;;;20.50;50.38;100095.90;110196;1264;18344;-39
2023/04/14 04:05:15;;;;;;;;;2.00;2.00;;;;;20.50;50.51;100094.79;110252;1251;19964;-40
2023/04/14 04:07:44;;;;;;;;;2.00;2.00;;;;;20.51;50.46;100089.84;110236;1251;20744;-39
2023/04/14 04:10:12;;;;;;;;;4.00;2.00;;;;;20.50;50.60;100091.59;110179;1251;19625;-39
2023/04/14 04:12:39;;;;;;;;;2.00;2.00;;;;;20.50;50.46;100087.98;110224;1264;18635;-41
2023/04/14 04:15:06;;;;;;;;;2.00;2.00;;;;;20.51;50.52;100091.44;110256;1264;20746;-37
2023/04/14 04:17:34;;;;;;;;;2.00;2.00;;;;;20.51;50.67;100086.23;110128;1251;20304;-38
2023/04/14 04:20:02;;;;;;;;;1.00;1.00;;;;;20.51;50.70;100086.74;110291;1264;20192;-37
2023/04/14 04:22:29;;;;;;;;;2.00;2.00;;;;;20.51;50.39;100085.11;110209;1264;22181;-37
2023/04/14 04:24:57;;;;;;;;;2.00;2.00;;;;;20.51;50.38;100080.39;110182;1251;19654;-39
2023/04/14 04:27:24;;;;;;;;;1.00;1.00;;;;;20.51;50.49;100079.00;110185;1251;21375;-39
2023/04/14 04:29:52;;;;;;;;;2.00;2.00;;;;;20.50;50.38;100076.34;110204;1251;20771;-40
2023/04/14 04:32:19;;;;;;;;;2.00;2.00;;;;;20.50;50.49;100078.70;110181;1264;19610;-39
2023/04/14 04:34:47;;;;;;;;;2.00;2.00;;;;;20.51;50.51;100082.64;110172;1264;18792;-38
2023/04/14 04:37:15;;;;;;;;;2.00;2.00;;;;;20.51;50.40;100084.98;110202;1251;20825;-38
2023/04/14 04:39:42;;;;;;;;;3.00;3.00;;;;;20.49;50.33;100078.98;110183;1249;18856;-40
2023/04/14 04:42:09;;;;;;;;;2.67;2.00;;;;;20.51;50.50;100083.44;110165;1251;20099;-39
2023/04/14 04:44:37;;;;;;;;;2.00;2.00;;;;;20.50;50.35;100087.20;110197;1264;22235;-39
2023/04/14 04:47:04;;;;;;;;;2.00;2.00;;;;;20.50;50.51;100088.07;110248;1264;18381;-40
2023/04/14 04:49:32;;;;;;;;;1.00;1.00;;;;;20.50;50.37;100092.34;110197;1264;22997;-40
2023/04/14 04:51:59;;;;;;;;;2.00;2.00;;;;;20.49;50.45;100096.36;110191;1250;20836;-42
2023/04/14 04:54:27;;;;;;;;;2.00;2.00;;;;;20.49;50.49;100097.15;110188;1250;19615;-37
2023/04/14 04:56:55;;;;;;;;;2.00;2.00;;;;;20.50;50.66;100099.09;110181;1264;18620;-39
2023/04/14 04:59:22;;;;;;;;;2.00;2.00;;;;;20.50;50.43;100096.70;110168;1260;22720;-39
2023/04/14 05:01:50;;;;;;;;;1.50;1.50;;;;;20.50;50.46;100098.38;110162;1264;19573;-41
2023/04/14 05:04:17;;;;;;;;;2.00;2.00;;;;;20.51;50.42;100103.32;110193;1250;18637;-38
2023/04/14 05:06:44;;;;;;;;;1.67;1.67;;;;;20.50;50.44;100105.20;110164;1264;20727;-40
2023/04/14 05:09:12;;;;;;;;;2.00;2.00;;;;;20.50;50.59;100100.27;110193;1264;18477;-39
2023/04/14 05:11:40;;;;;;;;;1.00;1.00;;;;;20.51;50.41;100097.81;110172;1264;19957;-40
2023/04/14 05:14:07;;;;;;;;;2.00;2.00;;;;;20.50;50.50;100095.44;110186;1264;19450;-40
2023/04/14 05:16:35;;;;;;;;;2.00;2.00;;;;;20.51;50.55;100099.30;110185;1264;19580;-39
2023/04/14 05:19:02;;;;;;;;;2.00;2.00;;;;;20.51;50.51;100094.25;110204;1251;20377;-41
2023/04/14 05:21:30;;;;;;;;;1.00;1.00;;;;;20.51;50.68;100094.02;110132;1251;20830;-40
2023/04/14 05:23:57;;;;;;;;;2.00;2.00;;;;;20.53;50.47;100091.98;110240;1264;19561;-39
2023/04/14 05:26:25;;;;;;;;;2.00;2.00;;;;;20.55;50.67;100093.75;110232;1264;22206;-40
2023/04/14 05:28:52;;;;;;;;;2.00;2.00;;;;;20.59;50.90;100095.48;110230;1264;19366;-39
2023/04/14 05:31:20;;;;;;;;;2.00;2.00;;;;;20.59;50.89;100096.27;110223;1251;19682;-38
2023/04/14 05:33:47;;;;;;;;;2.00;2.00;;;;;20.62;51.16;100094.04;110201;1257;19726;-38
2023/04/14 05:36:15;;;;;;;;;18.00;18.00;;;;;20.64;51.13;100093.52;110223;1251;20770;-39
2023/04/14 05:38:42;;;;;;;;;36.00;33.50;;;;;20.67;51.49;100093.85;110219;1251;23511;-40
2023/04/14 05:41:10;;;;;;;;;23.50;21.50;;;;;20.70;52.19;100097.61;110207;1251;20287;-39
2023/04/14 05:43:38;;;;;;;;;27.00;26.00;;;;;20.73;53.33;100097.69;110232;1264;22809;-40
2023/04/14 05:46:05;;;;;;;;;14.00;14.00;;;;;20.75;54.17;100099.52;110199;1251;20062;-43
2023/04/14 05:48:34;;;;;;;;;14.67;14.67;;;;;20.79;54.62;100101.70;110130;1264;18709;-39
2023/04/14 05:51:02;;;;;;;;;14.00;14.00;;;;;20.80;54.57;100100.16;110188;1256;23345;-39
2023/04/14 05:53:29;;;;;;;;;10.50;10.50;;;;;20.80;54.69;100099.65;110188;1264;20396;-39
2023/04/14 05:55:57;;;;;;;;;8.00;8.00;;;;;20.78;54.40;100097.50;110176;1251;21394;-39
2023/04/14 05:58:26;;;;;;;;;8.00;8.00;;;;;20.76;54.19;100094.34;110137;1251;20798;-39
2023/04/14 06:00:53;;;;;;;;;8.00;8.00;;;;;20.78;54.21;100095.40;110180;1251;19690;-39
2023/04/14 06:03:21;;;;;;;;;10.00;8.00;;;;;20.81;53.87;100095.48;110090;1264;20151;-39
2023/04/14 06:05:49;;;;;;;;;5.00;5.00;;;;;20.85;54.05;100098.62;110096;1250;19331;-39
2023/04/14 06:08:17;;;;;;;;;7.00;7.00;;;;;20.83;53.96;100104.88;110120;1251;21537;-40
2023/04/14 06:10:44;;;;;;;;;5.00;5.00;;;;;20.82;53.86;100105.45;110194;1264;18646;-39
2023/04/14 06:13:12;;;;;;;;;4.00;4.00;;;;;20.79;53.91;100109.77;110291;1264;19339;-39
2023/04/14 06:15:39;;;;;;;;;5.00;5.00;;;;;20.76;53.79;100106.88;110243;1251;18510;-40
2023/04/14 06:18:07;;;;;;;;;5.00;4.00;;;;;20.74;53.52;100104.61;110196;1251;20047;-39
2023/04/14 06:20:34;;;;;;;;;4.00;4.00;;;;;20.73;53.57;100105.86;110200;1257;19260;-40
2023/04/14 06:23:02;;;;;;;;;4.00;4.00;;;;;20.71;53.67;100104.13;110197;1264;18691;-40
2023/04/14 06:25:29;;;;;;;;;5.00;4.00;;;;;20.71;53.51;100102.45;110194;1264;18675;-42
2023/04/14 06:27:57;;;;;;;;;4.00;4.00;;;;;20.72;53.57;100101.83;110201;1250;21179;-39
2023/04/14 06:30:27;;;;;;;;;5.00;5.00;;;;;20.72;53.53;100101.54;110202;1264;22845;-37
2023/04/14 06:32:55;;;;;;;;;2.67;2.67;;;;;20.72;53.52;100106.44;110150;1264;18595;-38
2023/04/14 06:35:22;;;;;;;;;2.00;2.00;;;;;20.75;53.15;100101.89;110234;1251;22377;-41
2023/04/14 06:37:50;;;;;;;;;2.00;2.00;;;;;20.77;53.13;100100.42;110245;1264;18448;-39
2023/04/14 06:40:17;;;;;;;;;2.00;2.00;;;;;20.79;53.02;100101.70;110159;1251;20078;-40
2023/04/14 06:42:45;;;;;;;;;2.00;2.00;;;;;20.80;53.10;100100.15;110204;1264;19355;-40
2023/04/14 06:45:12;;;;;;;;;2.00;2.00;;;;;20.82;53.05;100102.13;110145;1251;18209;-40
2023/04/14 06:47:40;;;;;;;;;2.00;2.00;;;;;20.83;52.95;100103.42;110172;1264;23774;-40
2023/04/14 06:50:07;;;;;;;;;2.00;2.00;;;;;20.84;52.95;100097.56;110198;1264;20713;-39
2023/04/14 06:52:35;;;;;;;;;4.33;3.33;;;;;20.85;52.88;100098.83;110176;1264;22357;-39
2023/04/14 06:55:02;;;;;;;;;2.00;2.00;;;;;20.88;52.64;100095.05;110210;1264;20119;-39
2023/04/14 06:57:29;;;;;;;;;2.00;2.00;;;;;20.90;52.58;100092.73;110217;1264;20765;-39
2023/04/14 06:59:57;;;;;;;;;3.00;2.00;;;;;20.91;52.28;100091.17;110222;1264;19593;-39
2023/04/14 07:02:24;;;;;;;;;2.00;2.00;;;;;20.92;52.35;100086.95;110193;1264;18661;-39
2023/04/14 07:04:52;;;;;;;;;2.00;2.00;;;;;20.94;52.27;100087.73;110218;1264;21118;-39
2023/04/14 07:07:19;;;;;;;;;3.00;2.00;;;;;20.94;52.04;100087.36;110221;1264;18387;-39
2023/04/14 07:09:47;;;;;;;;;1.00;1.00;;;;;20.94;52.02;100080.33;110206;1264;20183;-39
2023/04/14 07:12:14;;;;;;;;;2.00;2.00;;;;;20.95;51.96;100084.36;110197;1260;20831;-43
2023/04/14 07:14:42;;;;;;;;;2.00;2.00;;;;;20.96;52.05;100087.30;110202;1264;19859;-39
2023/04/14 07:17:09;;;;;;;;;2.00;2.00;;;;;20.95;51.87;100091.27;110190;1257;19959;-39
2023/04/14 07:19:37;;;;;;;;;2.00;2.00;;;;;20.95;51.87;100098.11;110190;1264;19348;-40
2023/04/14 07:22:06;;;;;;;;;4.00;4.00;;;;;20.94;51.83;100102.58;110208;1251;19684;-39
2023/04/14 07:24:33;;;;;;;;;2.00;2.00;;;;;20.94;51.69;100097.55;110193;1251;22319;-39
2023/04/14 07:27:01;;;;;;;;;2.00;2.00;;;;;20.93;51.80;100102.70;110190;1264;19324;-40
2023/04/14 07:29:28;;;;;;;;;3.00;2.00;;;;;20.94;51.86;100102.29;110213;1264;19834;-40
2023/04/14 07:31:56;;;;;;;;;2.00;2.00;;;;;20.96;51.61;100103.27;110201;1264;18577;-40
2023/04/14 07:34:23;;;;;;;;;2.00;2.00;;;;;20.98;51.72;100105.00;110188;1251;20637;-41
2023/04/14 07:36:51;;;;;;;;;2.00;2.00;;;;;21.01;51.83;100106.08;110211;1264;19583;-40
2023/04/14 07:39:18;;;;;;;;;1.50;1.50;;;;;21.04;51.71;100106.29;110220;1251;20039;-40
2023/04/14 07:41:45;;;;;;;;;1.00;1.00;;;;;21.05;51.52;100110.67;110174;1251;20877;-40
2023/04/14 07:44:13;;;;;;;;;7.00;5.00;;;;;21.06;51.54;100109.38;110226;1264;18433;-41
2023/04/14 07:46:40;;;;;;;;;8.00;8.00;;;;;21.01;51.01;100109.34;110204;1264;18824;-40
2023/04/14 07:49:08;;;;;;;;;10.50;9.00;;;;;20.83;50.46;100110.63;110181;1264;22165;-40
2023/04/14 07:51:35;;;;;;;;;14.00;14.00;;;;;20.84;50.42;100108.45;110184;1264;18339;-41
2023/04/14 07:54:04;;;;;;;;;15.00;14.00;;;;;20.69;49.89;100112.13;110197;1264;18737;-41
2023/04/14 07:56:32;;;;;;;;;12.33;10.67;;;;;20.69;49.90;100104.44;110192;1251;20814;-40
2023/04/14 07:58:59;;;;;;;;;18.00;17.00;;;;;20.80;49.79;100105.48;110200;1264;19991;-41
2023/04/14 08:01:27;;;;;;;;;15.00;15.00;;;;;20.77;49.42;100098.53;110177;1264;18612;-40
2023/04/14 08:03:54;;;;;;;;;16.33;14.67;;;;;20.80;49.09;100104.86;110218;1264;20836;-39
2023/04/14 08:06:22;;;;;;;;;20.00;17.50;;;;;20.82;48.98;100101.23;110170;1264;22354;-40
2023/04/14 08:08:49;;;;;;;;;17.00;17.00;;;;;20.76;48.67;100102.51;110202;1264;19308;-38
2023/04/14 08:11:16;;;;;;;;;25.00;22.00;;;;;20.61;48.34;100100.57;110171;1251;22620;-39
2023/04/14 08:13:45;;;;;;;;;23.50;21.00;;;;;20.31;47.89;100106.23;110176;1251;20038;-40
2023/04/14 08:16:12;;;;;;;;;24.50;22.50;;;;;20.23;48.43;100103.48;110197;1251;20086;-40
2023/04/14 08:18:40;;;;;;;;;21.00;19.50;;;;;20.28;48.24;100097.61;110155;1264;20011;-40
2023/04/14 08:21:08;;;;;;;;;19.00;17.00;;;;;20.25;48.24;100098.52;110170;1251;18747;-39
2023/04/14 08:23:35;;;;;;;;;23.50;19.50;;;;;20.32;48.20;100093.84;110185;1264;22087;-40
2023/04/14 08:26:03;;;;;;;;;22.50;19.50;;;;;20.35;48.07;100090.08;110191;1257;19404;-40
2023/04/14 08:28:30;;;;;;;;;22.00;17.00;;;;;20.18;48.12;100090.06;110152;1251;169432;-40
2023/04/14 08:30:58;;;;;;;;;22.00;22.00;;;;;20.10;48.37;100083.74;110260;1264;19995;-39
2023/04/14 08:33:26;;;;;;;;;23.00;20.00;;;;;20.27;48.28;100079.98;110189;1251;22325;-39
2023/04/14 08:35:53;;;;;;;;;19.00;17.00;;;;;20.28;48.15;100080.70;110172;1264;22027;-39
2023/04/14 08:38:20;;;;;;;;;20.00;18.00;;;;;20.32;48.12;100074.55;110197;1264;18670;-39
2023/04/14 08:40:48;;;;;;;;;17.00;17.00;;;;;20.31;48.10;100075.08;110174;1251;22833;-39
2023/04/14 08:43:16;;;;;;;;;19.50;16.50;;;;;20.25;47.85;100073.83;110212;1264;18578;-40
2023/04/14 08:45:43;;;;;;;;;19.00;17.00;;;;;20.17;47.94;100076.15;110210;1251;18696;-41
2023/04/14 08:48:11;;;;;;;;;17.50;16.00;;;;;20.23;48.01;100077.66;110214;1264;20940;-39
2023/04/14 08:50:38;;;;;;;;;16.00;14.00;;;;;20.16;48.11;100078.38;110182;1250;22177;-39
2023/04/14 08:53:06;;;;;;;;;18.00;17.00;;;;;20.30;47.80;100077.50;110197;1256;22021;-39
2023/04/14 08:55:34;;;;;;;;;21.00;18.00;;;;;20.29;47.84;100078.61;110210;1250;21307;-40
2023/04/14 08:58:02;;;;;;;;;25.00;22.00;;;;;20.13;47.94;100071.77;110188;1264;20337;-40
2023/04/14 09:00:29;;;;;;;;;16.67;16.33;;;;;19.96;48.16;100075.06;110198;1264;18739;-40
2023/04/14 09:02:57;;;;;;;;;21.00;20.00;;;;;19.91;48.27;100067.65;110165;1257;23006;-40
2023/04/14 09:05:24;;;;;;;;;19.00;19.00;;;;;20.00;48.20;100071.11;110254;1249;18606;-39
2023/04/14 09:07:52;;;;;;;;;22.00;21.00;;;;;19.94;48.27;100068.05;110285;1251;20192;-40
2023/04/14 09:10:20;;;;;;;;;18.00;16.00;;;;;19.96;48.37;100067.76;110286;1264;19361;-40
2023/04/14 09:12:47;;;;;;;;;18.00;17.00;;;;;19.93;48.33;100063.64;110264;1251;18591;-40
2023/04/14 09:15:15;;;;;;;;;21.50;19.00;;;;;20.02;48.20;100061.26;110244;1264;19991;-40
2023/04/14 09:17:43;;;;;;;;;19.00;17.00;;;;;20.04;48.27;100070.88;110205;1264;22684;-40
2023/04/14 09:20:10;;;;;;;;;18.50;16.50;;;;;20.10;48.02;100064.22;110163;1249;19969;-40
2023/04/14 09:22:38;;;;;;;;;14.00;14.00;;;;;20.23;47.96;100060.79;110182;1264;18853;-39
2023/04/14 09:25:05;;;;;;;;;14.00;13.50;;;;;20.34;47.80;100063.64;110211;1251;20776;-39
2023/04/14 09:27:32;;;;;;;;;19.50;17.50;;;;;20.38;48.32;100066.17;110215;1264;18619;-38
2023/04/14 09:30:00;;;;;;;;;17.00;16.00;;;;;20.28;48.93;100062.91;110190;1249;22681;-39
2023/04/14 09:32:27;;;;;;;;;16.00;16.00;;;;;20.33;48.91;100071.21;110195;1251;19319;-40
2023/04/14 09:34:54;;;;;;;;;19.00;17.00;;;;;20.22;48.84;100068.73;110192;1264;19008;-39
2023/04/14 09:37:22;;;;;;;;;11.00;11.00;;;;;20.27;48.62;100067.41;110205;1264;20004;-40
2023/04/14 09:39:50;;;;;;;;;18.50;18.00;;;;;20.32;48.55;100060.43;110199;1251;20737;-42
2023/04/14 09:42:17;;;;;;;;;20.00;17.00;;;;;20.32;48.24;100066.88;110207;1251;20004;-39
2023/04/14 09:44:45;;;;;;;;;16.00;16.00;;;;;20.35;48.25;100063.50;110208;1259;22472;-40
2023/04/14 09:47:15;;;;;;;;;17.00;17.00;;;;;20.29;47.95;100059.86;110207;1251;23345;-41
2023/04/14 09:49:43;;;;;;;;;16.00;13.50;;;;;20.37;48.15;100070.93;110221;1251;24040;-39
2023/04/14 09:52:10;;;;;;;;;17.00;14.00;;;;;20.39;47.96;100070.66;110204;1264;20137;-40
2023/04/14 09:54:38;;;;;;;;;14.00;14.00;;;;;20.39;47.92;100069.53;110182;1264;20894;-40
2023/04/14 09:57:06;;;;;;;;;13.00;12.00;;;;;20.40;48.01;100074.02;110198;1260;22258;-40
2023/04/14 09:59:33;;;;;;;;;19.00;13.50;;;;;20.37;47.79;100080.48;110190;1264;18722;-40
2023/04/14 10:02:01;;;;;;;;;14.00;14.00;;;;;20.17;47.77;100077.54;110194;1251;20972;-39
2023/04/14 10:04:28;;;;;;;;;14.00;13.00;;;;;20.16;47.74;100075.64;110226;1251;19014;-39
2023/04/14 10:06:56;;;;;;;;;16.50;13.00;;;;;20.25;47.62;100077.48;110217;1264;20087;-40
2023/04/14 10:09:25;;;;;;;;;14.00;11.00;;;;;20.29;47.63;100077.83;110224;1251;20916;-39
2023/04/14 10:11:53;;;;;;;;;13.00;13.00;;;;;20.32;47.67;100083.30;110209;1264;22439;-39
2023/04/14 10:14:20;;;;;;;;;14.00;14.00;;;;;20.28;47.52;100077.52;110188;1264;18980;-39
2023/04/14 10:16:48;;;;;;;;;16.50;12.00;;;;;20.22;47.50;100073.16;110146;1264;22806;-39
2023/04/14 10:19:15;;;;;;;;;14.00;14.00;;;;;20.34;47.60;100074.91;110235;1264;18946;-44
2023/04/14 10:21:43;;;;;;;;;10.00;10.00;;;;;20.50;47.56;100075.84;110191;1264;21595;-39
2023/04/14 10:24:11;;;;;;;;;10.00;10.00;;;;;20.60;47.67;100074.42;110166;1250;21119;-40
2023/04/14 10:26:41;;;;;;;;;11.00;10.00;;;;;20.68;47.72;100080.48;110171;1264;22552;-40
2023/04/14 10:29:09;;;;;;;;;10.50;10.00;;;;;20.73;48.03;100085.46;110222;1251;20311;-39
2023/04/14 10:31:37;;;;;;;;;11.00;10.00;;;;;20.72;48.10;100080.26;110227;1264;22693;-39
2023/04/14 10:34:04;;;;;;;;;7.67;7.00;;;;;20.73;47.78;100076.73;110214;1264;19960;-40
2023/04/14 10:36:35;;;;;;;;;10.00;10.00;;;;;20.73;47.93;100079.46;110196;1264;18753;-38
2023/04/14 10:39:04;;;;;;;;;10.00;8.00;;;;;20.73;48.12;100079.63;110183;1250;22165;-38
2023/04/14 10:41:31;;;;;;;;;9.33;8.00;;;;;20.74;48.14;100071.02;110205;1264;22258;-38
2023/04/14 10:43:58;;;;;;;;;11.00;7.00;;;;;20.74;47.98;100070.09;110178;1264;19962;-39
2023/04/14 10:46:26;;;;;;;;;9.33;8.00;;;;;20.74;48.16;100067.53;110215;1251;20821;-39
2023/04/14 10:48:54;;;;;;;;;7.00;7.00;;;;;20.75;48.33;100070.52;110210;1251;20462;-39
2023/04/14 10:51:21;;;;;;;;;6.33;6.33;;;;;20.75;48.09;100067.58;110226;1257;22136;-40
2023/04/14 10:53:53;;;;;;;;;5.00;5.00;;;;;20.74;48.29;100069.58;110171;1265;20725;-39
2023/04/14 10:56:21;;;;;;;;;9.00;7.50;;;;;20.74;48.37;100071.64;110221;1251;19686;-39
2023/04/14 10:58:48;;;;;;;;;8.00;7.50;;;;;20.74;48.35;100067.70;110206;1264;21262;-39
2023/04/14 11:01:15;;;;;;;;;11.00;11.00;;;;;20.74;48.39;100066.78;110203;1265;20884;-40
2023/04/14 11:03:43;;;;;;;;;11.00;8.00;;;;;20.75;48.34;100064.94;110202;1250;22076;-40
2023/04/14 11:06:11;;;;;;;;;13.50;12.00;;;;;20.65;48.45;100065.63;110263;1265;22370;-40
2023/04/14 11:08:38;;;;;;;;;13.00;13.00;;;;;20.47;48.65;100070.56;110257;1264;19424;-40
2023/04/14 11:11:06;;;;;;;;;13.00;11.00;;;;;20.39;48.50;100070.06;110243;1264;19965;-39
2023/04/14 11:13:33;;;;;;;;;14.00;13.00;;;;;20.42;48.61;100066.27;110197;1264;18685;-40